sensor_id;sensor_type;location;lat;lon;timestamp;P1;durP1;ratioP1;P2;durP2;ratioP2
23388;SDS011;11867;51.198;11.966;2022-08-21T00:03:17;24.13;;;21.52;;
23388;SDS011;11867;51.198;11.966;2022-08-21T00:08:20;25.90;;;22.42;;
23388;SDS011;11867;51.198;11.966;2022-08-21T00:13:24;27.33;;;22.60;;
23388;SDS011;11867;51.198;11.966;2022-08-21T00:18:26;28.92;;;24.25;;
23388;SDS011;11867;51.198;11.966;2022-08-21T00:23:29;31.02;;;22.67;;
23388;SDS011;11867;51.198;11.966;2022-08-21T00:28:33;23.40;;;19.52;;
23388;SDS011;11867;51.198;11.966;2022-08-21T00:33:36;23.70;;;20.98;;
23388;SDS011;11867;51.198;11.966;2022-08-21T00:38:38;24.60;;;20.52;;
23388;SDS011;11867;51.198;11.966;2022-08-21T00:43:42;24.50;;;19.65;;
23388;SDS011;11867;51.198;11.966;2022-08-21T00:48:46;23.50;;;21.02;;
23388;SDS011;11867;51.198;11.966;2022-08-21T00:53:49;26.73;;;20.15;;
23388;SDS011;11867;51.198;11.966;2022-08-21T00:58:57;23.40;;;19.95;;
23388;SDS011;11867;51.198;11.966;2022-08-21T01:04:01;23.33;;;19.30;;
23388;SDS011;11867;51.198;11.966;2022-08-21T01:09:04;23.60;;;19.35;;
23388;SDS011;11867;51.198;11.966;2022-08-21T01:14:08;23.92;;;18.75;;
23388;SDS011;11867;51.198;11.966;2022-08-21T01:19:11;23.08;;;19.52;;
23388;SDS011;11867;51.198;11.966;2022-08-21T01:24:16;20.77;;;18.58;;
23388;SDS011;11867;51.198;11.966;2022-08-21T01:29:22;24.20;;;21.10;;
23388;SDS011;11867;51.198;11.966;2022-08-21T01:34:31;22.35;;;19.83;;
23388;SDS011;11867;51.198;11.966;2022-08-21T01:39:36;26.50;;;19.73;;
23388;SDS011;11867;51.198;11.966;2022-08-21T01:44:40;24.10;;;17.42;;
23388;SDS011;11867;51.198;11.966;2022-08-21T01:49:43;20.90;;;17.97;;
23388;SDS011;11867;51.198;11.966;2022-08-21T01:54:48;20.25;;;18.13;;
23388;SDS011;11867;51.198;11.966;2022-08-21T01:59:55;22.83;;;18.50;;
23388;SDS011;11867;51.198;11.966;2022-08-21T02:04:58;21.17;;;18.27;;
23388;SDS011;11867;51.198;11.966;2022-08-21T02:10:02;20.67;;;18.25;;
23388;SDS011;11867;51.198;11.966;2022-08-21T02:15:07;20.42;;;17.85;;
23388;SDS011;11867;51.198;11.966;2022-08-21T02:20:12;20.05;;;17.30;;
23388;SDS011;11867;51.198;11.966;2022-08-21T02:25:22;20.92;;;16.48;;
23388;SDS011;11867;51.198;11.966;2022-08-21T02:30:28;19.38;;;17.27;;
23388;SDS011;11867;51.198;11.966;2022-08-21T02:35:32;21.90;;;17.45;;
23388;SDS011;11867;51.198;11.966;2022-08-21T02:40:38;21.40;;;17.92;;
23388;SDS011;11867;51.198;11.966;2022-08-21T02:45:48;20.17;;;17.75;;
23388;SDS011;11867;51.198;11.966;2022-08-21T02:50:52;24.17;;;16.15;;
23388;SDS011;11867;51.198;11.966;2022-08-21T02:55:59;20.15;;;16.40;;
23388;SDS011;11867;51.198;11.966;2022-08-21T03:01:03;20.85;;;18.05;;
23388;SDS011;11867;51.198;11.966;2022-08-21T03:06:11;24.90;;;16.20;;
23388;SDS011;11867;51.198;11.966;2022-08-21T03:11:17;19.85;;;16.67;;
23388;SDS011;11867;51.198;11.966;2022-08-21T03:16:21;18.92;;;16.33;;
23388;SDS011;11867;51.198;11.966;2022-08-21T03:21:24;17.40;;;15.50;;
23388;SDS011;11867;51.198;11.966;2022-08-21T03:26:28;17.40;;;14.70;;
23388;SDS011;11867;51.198;11.966;2022-08-21T03:31:31;20.70;;;15.20;;
23388;SDS011;11867;51.198;11.966;2022-08-21T03:36:34;16.27;;;13.57;;
23388;SDS011;11867;51.198;11.966;2022-08-21T03:41:38;14.80;;;13.25;;
23388;SDS011;11867;51.198;11.966;2022-08-21T03:46:40;12.95;;;11.63;;
23388;SDS011;11867;51.198;11.966;2022-08-21T03:51:43;16.00;;;12.25;;
23388;SDS011;11867;51.198;11.966;2022-08-21T03:56:47;13.90;;;12.40;;
23388;SDS011;11867;51.198;11.966;2022-08-21T04:01:52;14.32;;;11.35;;
23388;SDS011;11867;51.198;11.966;2022-08-21T04:06:56;15.02;;;11.20;;
23388;SDS011;11867;51.198;11.966;2022-08-21T04:12:00;16.10;;;10.93;;
23388;SDS011;11867;51.198;11.966;2022-08-21T04:17:04;14.23;;;11.65;;
23388;SDS011;11867;51.198;11.966;2022-08-21T04:22:06;16.65;;;12.43;;
23388;SDS011;11867;51.198;11.966;2022-08-21T04:27:10;14.38;;;11.80;;
23388;SDS011;11867;51.198;11.966;2022-08-21T04:37:23;15.07;;;12.13;;
23388;SDS011;11867;51.198;11.966;2022-08-21T04:42:27;14.55;;;11.60;;
23388;SDS011;11867;51.198;11.966;2022-08-21T04:47:30;21.13;;;11.27;;
23388;SDS011;11867;51.198;11.966;2022-08-21T04:52:52;11.73;;;10.52;;
23388;SDS011;11867;51.198;11.966;2022-08-21T04:57:56;13.93;;;9.82;;
23388;SDS011;11867;51.198;11.966;2022-08-21T05:08:03;12.50;;;9.00;;
23388;SDS011;11867;51.198;11.966;2022-08-21T05:13:10;14.23;;;8.48;;
23388;SDS011;11867;51.198;11.966;2022-08-21T05:18:13;10.55;;;7.65;;
23388;SDS011;11867;51.198;11.966;2022-08-21T05:23:16;9.65;;;7.80;;
23388;SDS011;11867;51.198;11.966;2022-08-21T05:28:20;10.43;;;7.80;;
23388;SDS011;11867;51.198;11.966;2022-08-21T05:33:24;7.57;;;6.90;;
23388;SDS011;11867;51.198;11.966;2022-08-21T05:38:26;7.63;;;6.43;;
23388;SDS011;11867;51.198;11.966;2022-08-21T05:43:31;8.10;;;6.72;;
23388;SDS011;11867;51.198;11.966;2022-08-21T05:48:34;12.38;;;6.57;;
23388;SDS011;11867;51.198;11.966;2022-08-21T05:53:39;7.38;;;5.25;;
23388;SDS011;11867;51.198;11.966;2022-08-21T05:58:45;7.50;;;5.75;;
23388;SDS011;11867;51.198;11.966;2022-08-21T06:03:47;6.90;;;5.13;;
23388;SDS011;11867;51.198;11.966;2022-08-21T06:08:51;5.15;;;4.65;;
23388;SDS011;11867;51.198;11.966;2022-08-21T06:13:56;6.67;;;4.90;;
23388;SDS011;11867;51.198;11.966;2022-08-21T06:18:58;10.25;;;5.60;;
23388;SDS011;11867;51.198;11.966;2022-08-21T06:24:03;6.38;;;5.75;;
23388;SDS011;11867;51.198;11.966;2022-08-21T06:29:07;6.73;;;6.10;;
23388;SDS011;11867;51.198;11.966;2022-08-21T06:34:11;7.72;;;6.00;;
23388;SDS011;11867;51.198;11.966;2022-08-21T06:39:15;9.33;;;6.03;;
23388;SDS011;11867;51.198;11.966;2022-08-21T06:44:32;7.95;;;5.68;;
23388;SDS011;11867;51.198;11.966;2022-08-21T06:49:34;8.23;;;5.47;;
23388;SDS011;11867;51.198;11.966;2022-08-21T06:54:38;9.03;;;6.70;;
23388;SDS011;11867;51.198;11.966;2022-08-21T06:59:42;7.17;;;6.27;;
23388;SDS011;11867;51.198;11.966;2022-08-21T07:04:45;9.02;;;6.25;;
23388;SDS011;11867;51.198;11.966;2022-08-21T07:09:47;10.82;;;6.07;;
23388;SDS011;11867;51.198;11.966;2022-08-21T07:14:51;6.70;;;5.68;;
23388;SDS011;11867;51.198;11.966;2022-08-21T07:19:54;8.75;;;4.72;;
23388;SDS011;11867;51.198;11.966;2022-08-21T07:24:57;8.73;;;5.33;;
23388;SDS011;11867;51.198;11.966;2022-08-21T07:30:01;8.25;;;3.90;;
23388;SDS011;11867;51.198;11.966;2022-08-21T07:35:04;5.47;;;3.83;;
23388;SDS011;11867;51.198;11.966;2022-08-21T07:40:08;7.57;;;3.78;;
23388;SDS011;11867;51.198;11.966;2022-08-21T07:45:12;5.15;;;3.25;;
23388;SDS011;11867;51.198;11.966;2022-08-21T07:50:16;4.93;;;2.85;;
23388;SDS011;11867;51.198;11.966;2022-08-21T07:55:19;6.45;;;2.42;;
23388;SDS011;11867;51.198;11.966;2022-08-21T08:05:29;4.22;;;2.30;;
23388;SDS011;11867;51.198;11.966;2022-08-21T08:10:33;6.35;;;2.28;;
23388;SDS011;11867;51.198;11.966;2022-08-21T08:15:37;5.40;;;2.10;;
23388;SDS011;11867;51.198;11.966;2022-08-21T08:25:42;3.33;;;1.65;;
23388;SDS011;11867;51.198;11.966;2022-08-21T08:30:47;8.18;;;2.20;;
23388;SDS011;11867;51.198;11.966;2022-08-21T08:35:50;6.30;;;1.95;;
23388;SDS011;11867;51.198;11.966;2022-08-21T08:40:55;5.32;;;2.30;;
23388;SDS011;11867;51.198;11.966;2022-08-21T08:46:05;4.35;;;2.10;;
23388;SDS011;11867;51.198;11.966;2022-08-21T08:51:15;3.40;;;1.40;;
23388;SDS011;11867;51.198;11.966;2022-08-21T08:56:22;2.60;;;1.42;;
23388;SDS011;11867;51.198;11.966;2022-08-21T09:01:31;3.67;;;1.45;;
23388;SDS011;11867;51.198;11.966;2022-08-21T09:06:43;5.45;;;1.80;;
23388;SDS011;11867;51.198;11.966;2022-08-21T09:11:57;4.38;;;1.67;;
23388;SDS011;11867;51.198;11.966;2022-08-21T09:17:09;3.95;;;1.83;;
23388;SDS011;11867;51.198;11.966;2022-08-21T09:22:27;5.40;;;2.17;;
23388;SDS011;11867;51.198;11.966;2022-08-21T09:27:38;4.78;;;1.58;;
23388;SDS011;11867;51.198;11.966;2022-08-21T09:32:42;3.42;;;1.80;;
23388;SDS011;11867;51.198;11.966;2022-08-21T09:37:47;3.53;;;1.40;;
23388;SDS011;11867;51.198;11.966;2022-08-21T09:42:53;3.75;;;1.45;;
23388;SDS011;11867;51.198;11.966;2022-08-21T09:48:12;7.28;;;2.08;;
23388;SDS011;11867;51.198;11.966;2022-08-21T09:53:17;3.40;;;1.52;;
23388;SDS011;11867;51.198;11.966;2022-08-21T09:58:30;5.60;;;1.90;;
23388;SDS011;11867;51.198;11.966;2022-08-21T10:03:35;5.65;;;1.60;;
23388;SDS011;11867;51.198;11.966;2022-08-21T10:08:39;4.72;;;1.73;;
23388;SDS011;11867;51.198;11.966;2022-08-21T10:13:47;5.95;;;1.45;;
23388;SDS011;11867;51.198;11.966;2022-08-21T10:19:01;2.13;;;1.38;;
23388;SDS011;11867;51.198;11.966;2022-08-21T10:24:12;3.65;;;1.67;;
23388;SDS011;11867;51.198;11.966;2022-08-21T10:29:37;3.08;;;1.80;;
23388;SDS011;11867;51.198;11.966;2022-08-21T10:34:48;2.72;;;1.60;;
23388;SDS011;11867;51.198;11.966;2022-08-21T10:40:00;6.72;;;1.98;;
23388;SDS011;11867;51.198;11.966;2022-08-21T10:45:15;4.63;;;1.70;;
23388;SDS011;11867;51.198;11.966;2022-08-21T10:50:30;5.82;;;2.00;;
23388;SDS011;11867;51.198;11.966;2022-08-21T10:55:35;3.67;;;1.70;;
23388;SDS011;11867;51.198;11.966;2022-08-21T11:00:45;2.97;;;1.88;;
23388;SDS011;11867;51.198;11.966;2022-08-21T11:05:52;2.92;;;1.80;;
23388;SDS011;11867;51.198;11.966;2022-08-21T11:10:59;5.35;;;1.98;;
23388;SDS011;11867;51.198;11.966;2022-08-21T11:16:10;6.15;;;1.90;;
23388;SDS011;11867;51.198;11.966;2022-08-21T11:21:39;3.72;;;1.95;;
23388;SDS011;11867;51.198;11.966;2022-08-21T11:26:46;4.57;;;1.77;;
23388;SDS011;11867;51.198;11.966;2022-08-21T11:32:03;3.03;;;2.05;;
23388;SDS011;11867;51.198;11.966;2022-08-21T11:37:37;3.03;;;1.85;;
23388;SDS011;11867;51.198;11.966;2022-08-21T11:42:53;5.32;;;1.90;;
23388;SDS011;11867;51.198;11.966;2022-08-21T11:48:05;4.30;;;2.00;;
23388;SDS011;11867;51.198;11.966;2022-08-21T11:53:18;2.77;;;2.10;;
23388;SDS011;11867;51.198;11.966;2022-08-21T11:58:30;5.00;;;2.17;;
23388;SDS011;11867;51.198;11.966;2022-08-21T12:03:39;5.65;;;2.22;;
23388;SDS011;11867;51.198;11.966;2022-08-21T12:08:46;7.00;;;3.22;;
23388;SDS011;11867;51.198;11.966;2022-08-21T12:14:11;6.32;;;2.53;;
23388;SDS011;11867;51.198;11.966;2022-08-21T12:19:27;4.13;;;2.40;;
23388;SDS011;11867;51.198;11.966;2022-08-21T12:24:35;2.92;;;2.13;;
23388;SDS011;11867;51.198;11.966;2022-08-21T12:29:44;3.13;;;2.00;;
23388;SDS011;11867;51.198;11.966;2022-08-21T12:34:50;6.18;;;2.25;;
23388;SDS011;11867;51.198;11.966;2022-08-21T12:39:59;3.75;;;2.00;;
23388;SDS011;11867;51.198;11.966;2022-08-21T12:45:07;4.93;;;2.20;;
23388;SDS011;11867;51.198;11.966;2022-08-21T12:50:17;3.95;;;2.30;;
23388;SDS011;11867;51.198;11.966;2022-08-21T12:55:29;4.55;;;2.25;;
23388;SDS011;11867;51.198;11.966;2022-08-21T13:00:33;4.13;;;2.47;;
23388;SDS011;11867;51.198;11.966;2022-08-21T13:05:36;5.35;;;2.72;;
23388;SDS011;11867;51.198;11.966;2022-08-21T13:10:41;3.88;;;2.22;;
23388;SDS011;11867;51.198;11.966;2022-08-21T13:15:44;4.07;;;2.85;;
23388;SDS011;11867;51.198;11.966;2022-08-21T13:20:48;3.30;;;2.45;;
23388;SDS011;11867;51.198;11.966;2022-08-21T13:25:53;4.15;;;2.50;;
23388;SDS011;11867;51.198;11.966;2022-08-21T13:30:57;4.05;;;2.13;;
23388;SDS011;11867;51.198;11.966;2022-08-21T13:36:01;4.72;;;2.35;;
23388;SDS011;11867;51.198;11.966;2022-08-21T13:41:18;4.93;;;2.45;;
23388;SDS011;11867;51.198;11.966;2022-08-21T13:46:23;5.55;;;2.15;;
23388;SDS011;11867;51.198;11.966;2022-08-21T13:51:30;3.42;;;2.38;;
23388;SDS011;11867;51.198;11.966;2022-08-21T13:56:42;5.93;;;2.83;;
23388;SDS011;11867;51.198;11.966;2022-08-21T14:01:48;3.40;;;2.35;;
23388;SDS011;11867;51.198;11.966;2022-08-21T14:06:54;7.68;;;2.45;;
23388;SDS011;11867;51.198;11.966;2022-08-21T14:11:58;2.67;;;2.10;;
23388;SDS011;11867;51.198;11.966;2022-08-21T14:17:04;3.28;;;2.10;;
23388;SDS011;11867;51.198;11.966;2022-08-21T14:22:32;2.88;;;2.10;;
23388;SDS011;11867;51.198;11.966;2022-08-21T14:27:44;4.60;;;2.40;;
23388;SDS011;11867;51.198;11.966;2022-08-21T14:32:51;3.88;;;2.03;;
23388;SDS011;11867;51.198;11.966;2022-08-21T14:37:54;3.45;;;2.03;;
23388;SDS011;11867;51.198;11.966;2022-08-21T14:42:58;6.20;;;2.17;;
23388;SDS011;11867;51.198;11.966;2022-08-21T14:48:01;5.82;;;2.17;;
23388;SDS011;11867;51.198;11.966;2022-08-21T14:53:05;4.35;;;2.10;;
23388;SDS011;11867;51.198;11.966;2022-08-21T14:58:12;4.55;;;2.10;;
23388;SDS011;11867;51.198;11.966;2022-08-21T15:03:15;3.00;;;2.00;;
23388;SDS011;11867;51.198;11.966;2022-08-21T15:08:18;4.30;;;2.33;;
23388;SDS011;11867;51.198;11.966;2022-08-21T15:13:22;5.05;;;1.85;;
23388;SDS011;11867;51.198;11.966;2022-08-21T15:18:28;2.53;;;2.20;;
23388;SDS011;11867;51.198;11.966;2022-08-21T15:23:31;6.05;;;2.10;;
23388;SDS011;11867;51.198;11.966;2022-08-21T15:28:35;5.07;;;1.93;;
23388;SDS011;11867;51.198;11.966;2022-08-21T15:33:39;3.78;;;2.08;;
23388;SDS011;11867;51.198;11.966;2022-08-21T15:38:43;10.67;;;2.13;;
23388;SDS011;11867;51.198;11.966;2022-08-21T15:43:48;6.88;;;3.33;;
23388;SDS011;11867;51.198;11.966;2022-08-21T15:48:54;5.88;;;2.78;;
23388;SDS011;11867;51.198;11.966;2022-08-21T15:54:00;4.25;;;2.30;;
23388;SDS011;11867;51.198;11.966;2022-08-21T15:59:05;3.60;;;2.10;;
23388;SDS011;11867;51.198;11.966;2022-08-21T16:04:15;4.25;;;1.98;;
23388;SDS011;11867;51.198;11.966;2022-08-21T16:09:23;6.28;;;2.22;;
23388;SDS011;11867;51.198;11.966;2022-08-21T16:14:26;4.95;;;2.58;;
23388;SDS011;11867;51.198;11.966;2022-08-21T16:19:31;3.53;;;2.33;;
23388;SDS011;11867;51.198;11.966;2022-08-21T16:24:34;5.45;;;2.50;;
23388;SDS011;11867;51.198;11.966;2022-08-21T16:29:40;4.47;;;2.33;;
23388;SDS011;11867;51.198;11.966;2022-08-21T16:34:44;5.03;;;2.00;;
23388;SDS011;11867;51.198;11.966;2022-08-21T16:39:48;4.30;;;2.20;;
23388;SDS011;11867;51.198;11.966;2022-08-21T16:44:54;4.03;;;2.40;;
23388;SDS011;11867;51.198;11.966;2022-08-21T16:49:57;3.20;;;2.47;;
23388;SDS011;11867;51.198;11.966;2022-08-21T16:55:01;8.68;;;2.90;;
23388;SDS011;11867;51.198;11.966;2022-08-21T17:00:07;4.75;;;2.13;;
23388;SDS011;11867;51.198;11.966;2022-08-21T17:05:13;3.30;;;1.73;;
23388;SDS011;11867;51.198;11.966;2022-08-21T17:10:16;5.78;;;2.50;;
23388;SDS011;11867;51.198;11.966;2022-08-21T17:15:22;7.10;;;2.40;;
23388;SDS011;11867;51.198;11.966;2022-08-21T17:20:27;4.50;;;2.22;;
23388;SDS011;11867;51.198;11.966;2022-08-21T17:25:31;5.45;;;1.90;;
23388;SDS011;11867;51.198;11.966;2022-08-21T17:30:36;3.83;;;2.20;;
23388;SDS011;11867;51.198;11.966;2022-08-21T17:35:43;7.22;;;2.40;;
23388;SDS011;11867;51.198;11.966;2022-08-21T17:40:46;5.05;;;2.13;;
23388;SDS011;11867;51.198;11.966;2022-08-21T17:50:53;5.10;;;2.40;;
23388;SDS011;11867;51.198;11.966;2022-08-21T17:55:56;4.78;;;2.38;;
23388;SDS011;11867;51.198;11.966;2022-08-21T18:01:00;4.10;;;2.20;;
23388;SDS011;11867;51.198;11.966;2022-08-21T18:06:04;5.70;;;2.53;;
23388;SDS011;11867;51.198;11.966;2022-08-21T18:16:19;6.82;;;2.90;;
23388;SDS011;11867;51.198;11.966;2022-08-21T18:21:23;4.15;;;2.35;;
23388;SDS011;11867;51.198;11.966;2022-08-21T18:26:27;5.90;;;2.38;;
23388;SDS011;11867;51.198;11.966;2022-08-21T18:31:34;6.60;;;2.78;;
23388;SDS011;11867;51.198;11.966;2022-08-21T18:36:39;4.10;;;2.55;;
23388;SDS011;11867;51.198;11.966;2022-08-21T18:41:41;3.20;;;2.70;;
23388;SDS011;11867;51.198;11.966;2022-08-21T18:46:49;4.05;;;2.72;;
23388;SDS011;11867;51.198;11.966;2022-08-21T18:51:55;3.20;;;2.45;;
23388;SDS011;11867;51.198;11.966;2022-08-21T18:56:58;6.40;;;2.67;;
23388;SDS011;11867;51.198;11.966;2022-08-21T19:02:07;6.35;;;3.35;;
23388;SDS011;11867;51.198;11.966;2022-08-21T19:07:10;6.03;;;2.90;;
23388;SDS011;11867;51.198;11.966;2022-08-21T19:12:16;5.18;;;3.40;;
23388;SDS011;11867;51.198;11.966;2022-08-21T19:17:23;8.52;;;3.38;;
23388;SDS011;11867;51.198;11.966;2022-08-21T19:22:25;4.20;;;3.55;;
23388;SDS011;11867;51.198;11.966;2022-08-21T19:27:28;7.20;;;3.17;;
23388;SDS011;11867;51.198;11.966;2022-08-21T19:32:32;7.78;;;3.30;;
23388;SDS011;11867;51.198;11.966;2022-08-21T19:37:37;5.68;;;3.50;;
23388;SDS011;11867;51.198;11.966;2022-08-21T19:42:40;5.93;;;3.05;;
23388;SDS011;11867;51.198;11.966;2022-08-21T19:47:45;7.15;;;3.53;;
23388;SDS011;11867;51.198;11.966;2022-08-21T19:52:50;5.55;;;3.10;;
23388;SDS011;11867;51.198;11.966;2022-08-21T19:58:19;5.30;;;3.65;;
23388;SDS011;11867;51.198;11.966;2022-08-21T20:03:34;5.60;;;3.20;;
23388;SDS011;11867;51.198;11.966;2022-08-21T20:08:37;6.07;;;3.40;;
23388;SDS011;11867;51.198;11.966;2022-08-21T20:13:40;4.82;;;3.50;;
23388;SDS011;11867;51.198;11.966;2022-08-21T20:18:45;6.15;;;3.42;;
23388;SDS011;11867;51.198;11.966;2022-08-21T20:23:48;4.55;;;3.20;;
23388;SDS011;11867;51.198;11.966;2022-08-21T20:28:51;9.27;;;3.47;;
23388;SDS011;11867;51.198;11.966;2022-08-21T20:33:56;6.00;;;3.00;;
23388;SDS011;11867;51.198;11.966;2022-08-21T20:38:59;7.53;;;3.05;;
23388;SDS011;11867;51.198;11.966;2022-08-21T20:44:02;6.65;;;3.17;;
23388;SDS011;11867;51.198;11.966;2022-08-21T20:49:06;5.82;;;3.22;;
23388;SDS011;11867;51.198;11.966;2022-08-21T20:54:15;4.65;;;3.45;;
23388;SDS011;11867;51.198;11.966;2022-08-21T20:59:35;7.18;;;3.80;;
23388;SDS011;11867;51.198;11.966;2022-08-21T21:04:45;4.68;;;3.33;;
23388;SDS011;11867;51.198;11.966;2022-08-21T21:09:51;7.50;;;3.60;;
23388;SDS011;11867;51.198;11.966;2022-08-21T21:14:59;5.90;;;3.55;;
23388;SDS011;11867;51.198;11.966;2022-08-21T21:20:09;7.20;;;3.63;;
23388;SDS011;11867;51.198;11.966;2022-08-21T21:25:16;4.72;;;3.25;;
23388;SDS011;11867;51.198;11.966;2022-08-21T21:30:26;4.65;;;3.20;;
23388;SDS011;11867;51.198;11.966;2022-08-21T21:35:38;6.07;;;3.25;;
23388;SDS011;11867;51.198;11.966;2022-08-21T21:40:53;5.00;;;3.45;;
23388;SDS011;11867;51.198;11.966;2022-08-21T21:46:12;5.70;;;4.10;;
23388;SDS011;11867;51.198;11.966;2022-08-21T21:51:32;6.18;;;4.40;;
23388;SDS011;11867;51.198;11.966;2022-08-21T21:56:53;7.78;;;4.68;;
23388;SDS011;11867;51.198;11.966;2022-08-21T22:02:05;6.28;;;3.85;;
23388;SDS011;11867;51.198;11.966;2022-08-21T22:07:18;6.22;;;4.20;;
23388;SDS011;11867;51.198;11.966;2022-08-21T22:12:33;6.82;;;3.88;;
23388;SDS011;11867;51.198;11.966;2022-08-21T22:17:55;4.63;;;3.67;;
23388;SDS011;11867;51.198;11.966;2022-08-21T22:23:06;6.93;;;4.47;;
23388;SDS011;11867;51.198;11.966;2022-08-21T22:28:17;5.72;;;3.88;;
23388;SDS011;11867;51.198;11.966;2022-08-21T22:33:26;7.63;;;4.38;;
23388;SDS011;11867;51.198;11.966;2022-08-21T22:38:32;6.22;;;4.07;;
23388;SDS011;11867;51.198;11.966;2022-08-21T22:43:49;7.63;;;4.13;;
23388;SDS011;11867;51.198;11.966;2022-08-21T22:48:56;5.82;;;4.07;;
23388;SDS011;11867;51.198;11.966;2022-08-21T22:54:04;7.80;;;4.03;;
23388;SDS011;11867;51.198;11.966;2022-08-21T22:59:23;5.47;;;3.67;;
23388;SDS011;11867;51.198;11.966;2022-08-21T23:04:29;5.63;;;4.63;;
23388;SDS011;11867;51.198;11.966;2022-08-21T23:09:36;9.07;;;4.57;;
23388;SDS011;11867;51.198;11.966;2022-08-21T23:14:47;5.28;;;4.13;;
23388;SDS011;11867;51.198;11.966;2022-08-21T23:19:56;8.55;;;4.57;;
23388;SDS011;11867;51.198;11.966;2022-08-21T23:25:11;11.50;;;4.40;;
23388;SDS011;11867;51.198;11.966;2022-08-21T23:30:29;5.22;;;4.00;;
23388;SDS011;11867;51.198;11.966;2022-08-21T23:35:43;5.10;;;4.38;;
23388;SDS011;11867;51.198;11.966;2022-08-21T23:41:07;7.03;;;4.68;;
23388;SDS011;11867;51.198;11.966;2022-08-21T23:46:22;6.97;;;4.20;;
23388;SDS011;11867;51.198;11.966;2022-08-21T23:51:36;6.03;;;4.28;;
23388;SDS011;11867;51.198;11.966;2022-08-21T23:56:51;6.05;;;4.45;;
